Time;durP1;ratioP1;P1;durP2;ratioP2;P2;SDS_P1;SDS_P2;PMS_P1;PMS_P2;Temp;Humidity;BMP_temperature;BMP_pressure;BME280_temperature;BME280_humidity;BME280_pressure;Samples;Min_cycle;Max_cycle;Signal;HPM_P1;HPM_P2
2022/09/24 00:00:28;;;;;;;79.20;36.67;;;;;;;18.99;100.00;101129.38;5000436;28;20031;-53
2022/09/24 00:02:54;;;;;;;78.17;36.90;;;;;;;18.95;100.00;101125.50;4998177;28;20273;-54
2022/09/24 00:05:19;;;;;;;79.70;39.15;;;;;;;19.06;100.00;101124.63;5003544;28;20297;-56
2022/09/24 00:07:45;;;;;;;83.28;38.10;;;;;;;19.53;100.00;101128.06;5013090;28;20038;-55
2022/09/24 00:10:11;;;;;;;91.75;41.42;;;;;;;19.88;100.00;101123.38;4998074;28;20033;-55
2022/09/24 00:12:37;;;;;;;86.88;38.03;;;;;;;19.28;100.00;101117.66;5008910;28;20031;-56
2022/09/24 00:15:04;;;;;;;86.10;37.40;;;;;;;19.38;100.00;101120.50;4999362;28;20035;-57
2022/09/24 00:17:29;;;;;;;85.32;39.72;;;;;;;19.79;100.00;101112.13;5005392;28;20043;-49
2022/09/24 00:19:55;;;;;;;92.78;39.15;;;;;;;19.60;100.00;101117.84;5002738;28;20061;-53
2022/09/24 00:22:20;;;;;;;89.70;39.93;;;;;;;19.41;100.00;101116.50;5002038;28;20062;-58
2022/09/24 00:27:30;;;;;;;96.37;41.93;;;;;;;19.68;100.00;101110.38;4990325;28;20094;-52
2022/09/24 00:29:56;;;;;;;97.72;40.78;;;;;;;19.67;100.00;101100.59;4994789;28;20279;-52
2022/09/24 00:32:23;;;;;;;101.07;40.67;;;;;;;19.31;100.00;101100.88;5009636;28;20283;-54
2022/09/24 00:34:51;;;;;;;93.80;41.90;;;;;;;19.52;100.00;101099.28;5010251;28;20061;-53
2022/09/24 00:37:18;;;;;;;96.40;42.37;;;;;;;19.23;100.00;101099.41;5018034;28;20280;-51
2022/09/24 00:39:44;;;;;;;98.75;42.90;;;;;;;19.12;100.00;101097.59;5015849;28;20274;-54
2022/09/24 00:42:11;;;;;;;100.00;43.70;;;;;;;18.84;100.00;101100.13;4993020;28;20109;-53
2022/09/24 00:44:43;;;;;;;94.70;40.97;;;;;;;19.38;100.00;101093.41;4999541;28;20332;-54
2022/09/24 00:47:16;;;;;;;88.93;41.77;;;;;;;18.89;100.00;101091.22;5002299;28;20277;-56
2022/09/24 00:49:43;;;;;;;96.27;42.60;;;;;;;18.83;100.00;101095.75;4999813;28;20285;-51
2022/09/24 00:52:09;;;;;;;97.60;41.70;;;;;;;19.01;100.00;101093.88;4991849;28;20272;-54
2022/09/24 00:54:36;;;;;;;;;;;;;;;19.27;100.00;101102.47;4993761;28;20290;-54
2022/09/24 00:57:01;;;;;;;96.13;40.83;;;;;;;18.96;100.00;101094.63;5006705;28;19981;-55
2022/09/24 00:59:28;;;;;;;95.15;42.35;;;;;;;19.00;100.00;101084.13;5000434;28;20280;-54
2022/09/24 01:01:57;;;;;;;83.67;37.70;;;;;;;18.81;100.00;101083.50;5022906;28;20045;-58
2022/09/24 01:04:25;;;;;;;84.60;40.47;;;;;;;18.92;100.00;101077.22;4995202;28;20277;-57
2022/09/24 01:06:52;;;;;;;98.97;40.30;;;;;;;19.10;100.00;101078.88;5006374;28;20331;-55
2022/09/24 01:09:20;;;;;;;84.55;39.35;;;;;;;19.12;100.00;101079.44;5006717;28;20276;-55
2022/09/24 01:12:25;;;;;;;86.30;40.73;;;;;;;18.48;100.00;101069.66;4996922;28;20065;-53
2022/09/24 01:15:10;;;;;;;75.90;35.60;;;;;;;18.33;100.00;101075.63;5001606;28;20261;-50
2022/09/24 01:17:45;;;;;;;77.70;36.30;;;;;;;18.71;100.00;101066.03;4984761;28;20287;-55
2022/09/24 01:20:31;;;;;;;70.07;35.40;;;;;;;18.41;100.00;101060.88;5000427;28;20273;-56
2022/09/24 01:23:10;;;;;;;77.03;35.10;;;;;;;18.56;100.00;101058.44;4994958;28;20264;-51
2022/09/24 01:25:35;;;;;;;68.40;34.20;;;;;;;18.58;100.00;101061.75;5000330;28;20055;-52
2022/09/24 01:28:26;;;;;;;73.30;36.50;;;;;;;18.44;100.00;101061.19;5012270;28;20270;-54
2022/09/24 01:30:58;;;;;;;82.33;39.87;;;;;;;18.53;100.00;101058.94;5001682;28;20043;-54
2022/09/24 01:33:26;;;;;;;88.50;41.77;;;;;;;18.77;100.00;101059.63;5002702;28;20268;-52
2022/09/24 01:35:56;;;;;;;84.40;40.67;;;;;;;18.83;100.00;101051.56;4988402;28;20278;-53
2022/09/24 01:38:28;;;;;;;87.43;42.63;;;;;;;19.05;100.00;101049.81;5004174;28;20331;-52
2022/09/24 01:40:58;;;;;;;82.03;41.70;;;;;;;18.65;100.00;101056.16;5004966;28;20280;-54
2022/09/24 01:43:26;;;;;;;82.70;40.07;;;;;;;18.82;100.00;101045.34;5004269;28;20258;-53
2022/09/24 01:45:58;;;;;;;81.37;40.23;;;;;;;18.70;100.00;101044.59;4989796;28;20276;-55
2022/09/24 01:48:29;;;;;;;78.50;38.77;;;;;;;18.60;100.00;101042.53;5000346;28;20279;-51
2022/09/24 01:51:16;;;;;;;72.73;37.90;;;;;;;18.90;100.00;101038.69;5015018;28;20270;-54
2022/09/24 01:53:49;;;;;;;83.83;39.03;;;;;;;19.07;100.00;101038.72;4991522;28;20279;-55
2022/09/24 01:56:32;;;;;;;75.73;38.63;;;;;;;18.76;100.00;101041.72;5002568;28;20277;-53
2022/09/24 01:59:06;;;;;;;72.47;37.20;;;;;;;18.81;100.00;101042.88;5000037;28;20300;-54
2022/09/24 02:01:47;;;;;;;75.30;37.97;;;;;;;19.34;100.00;101033.41;5004436;28;20336;-52
2022/09/24 02:04:16;;;;;;;71.83;38.90;;;;;;;19.08;100.00;101037.66;4995206;28;20273;-51
2022/09/24 02:06:50;;;;;;;70.03;37.50;;;;;;;19.42;100.00;101034.88;4994373;28;20292;-52
2022/09/24 02:09:36;;;;;;;69.70;35.63;;;;;;;19.29;100.00;101036.06;5000356;28;20271;-54
2022/09/24 02:12:09;;;;;;;67.68;34.60;;;;;;;19.24;100.00;101025.13;5013167;28;20272;-55
2022/09/24 02:14:41;;;;;;;63.93;33.83;;;;;;;19.26;100.00;101027.59;4993819;28;20034;-54
2022/09/24 02:17:09;;;;;;;66.90;34.37;;;;;;;19.52;100.00;101026.06;5014287;28;20290;-53
2022/09/24 02:19:38;;;;;;;62.63;32.93;;;;;;;19.31;100.00;101025.78;4993492;28;20272;-55
2022/09/24 02:22:08;;;;;;;67.27;32.93;;;;;;;19.43;100.00;101020.25;5002826;28;20268;-52
2022/09/24 02:24:43;;;;;;;57.97;30.47;;;;;;;19.57;100.00;101023.41;5003053;28;20261;-55
2022/09/24 02:27:09;;;;;;;58.57;29.83;;;;;;;19.45;100.00;101014.59;4999759;28;20272;-55
2022/09/24 02:29:34;;;;;;;61.08;32.05;;;;;;;19.40;100.00;101019.94;5003775;28;20295;-54
2022/09/24 02:32:02;;;;;;;57.20;29.83;;;;;;;19.31;100.00;101014.94;5004140;28;20098;-53
2022/09/24 02:34:34;;;;;;;62.27;30.07;;;;;;;19.25;100.00;101010.50;5007753;28;20054;-56
2022/09/24 02:37:05;;;;;;;60.30;29.27;;;;;;;19.56;100.00;101020.97;5002831;28;20276;-51
2022/09/24 02:39:31;;;;;;;52.83;26.53;;;;;;;19.41;100.00;101014.25;4993410;28;20265;-55
2022/09/24 02:41:57;;;;;;;60.10;30.90;;;;;;;19.43;100.00;101011.31;5000967;28;20364;-56
2022/09/24 02:44:23;;;;;;;60.72;28.75;;;;;;;19.40;100.00;101014.53;4993306;28;20045;-57
2022/09/24 02:46:49;;;;;;;58.63;29.25;;;;;;;19.45;100.00;101009.16;4992244;28;20031;-55
2022/09/24 02:49:15;;;;;;;58.30;29.08;;;;;;;19.47;100.00;101013.25;5003308;28;20084;-54
2022/09/24 02:51:42;;;;;;;58.43;27.80;;;;;;;19.37;100.00;101006.84;4992442;28;20030;-55
2022/09/24 02:54:08;;;;;;;50.97;26.35;;;;;;;19.20;100.00;101003.13;4993065;28;20272;-55
2022/09/24 02:56:34;;;;;;;54.40;26.48;;;;;;;18.94;100.00;100992.94;5001362;28;20043;-54
2022/09/24 02:59:01;;;;;;;50.38;25.33;;;;;;;19.53;100.00;100997.06;5018163;28;20027;-53
2022/09/24 03:01:28;;;;;;;44.90;24.30;;;;;;;19.42;100.00;100998.81;5028479;28;20036;-50
2022/09/24 03:03:54;;;;;;;48.63;26.17;;;;;;;19.14;100.00;100998.69;5001916;28;20302;-52
2022/09/24 03:06:19;;;;;;;56.60;27.87;;;;;;;19.09;100.00;100990.50;4997810;28;20280;-51
2022/09/24 03:08:45;;;;;;;56.33;28.67;;;;;;;18.80;100.00;100992.47;5018435;28;20021;-53
2022/09/24 03:11:12;;;;;;;50.35;28.13;;;;;;;18.59;100.00;101000.25;5002204;28;20046;-56
2022/09/24 03:13:39;;;;;;;56.80;28.47;;;;;;;18.59;100.00;100992.13;4999569;28;20030;-52
2022/09/24 03:16:06;;;;;;;59.83;30.88;;;;;;;18.57;100.00;100994.28;5005779;28;20273;-52
2022/09/24 03:18:33;;;;;;;61.50;31.63;;;;;;;18.55;100.00;100996.41;5012225;28;20042;-49
2022/09/24 03:21:01;;;;;;;50.17;26.60;;;;;;;18.59;100.00;100997.56;4999024;28;20272;-51
2022/09/24 03:23:27;;;;;;;46.23;24.77;;;;;;;18.53;100.00;100993.13;5002029;28;20336;-52
2022/09/24 03:25:54;;;;;;;51.17;23.98;;;;;;;18.80;100.00;100987.06;5002900;28;20360;-54
2022/09/24 03:28:19;;;;;;;42.38;21.65;;;;;;;18.31;100.00;100977.59;4995516;28;20031;-52
2022/09/24 03:31:01;;;;;;;38.97;21.98;;;;;;;18.45;100.00;100981.63;5017795;28;20114;-52
2022/09/24 03:33:43;;;;;;;43.10;23.10;;;;;;;18.44;100.00;100979.16;5001452;28;20039;-55
2022/09/24 03:36:11;;;;;;;48.97;23.07;;;;;;;18.67;100.00;100982.78;4994447;28;20340;-54
2022/09/24 03:38:39;;;;;;;44.33;21.53;;;;;;;19.07;100.00;100981.81;5005947;28;20379;-49
2022/09/24 03:41:05;;;;;;;43.30;23.37;;;;;;;18.78;100.00;100979.16;5007942;28;20279;-56
2022/09/24 03:43:31;;;;;;;36.95;19.75;;;;;;;18.83;100.00;100976.56;5008121;28;20269;-50
2022/09/24 03:45:57;;;;;;;41.70;21.30;;;;;;;18.49;100.00;100979.25;5007670;28;20065;-54
2022/09/24 03:48:23;;;;;;;44.15;20.60;;;;;;;18.74;100.00;100967.19;4991201;28;20086;-53
2022/09/24 03:50:49;;;;;;;45.47;22.40;;;;;;;19.01;100.00;100977.34;5010840;28;20047;-53
2022/09/24 03:53:15;;;;;;;41.90;21.50;;;;;;;18.76;100.00;100974.00;4992210;28;20276;-53
2022/09/24 03:55:42;;;;;;;36.33;20.08;;;;;;;18.71;100.00;100968.50;4997181;28;20042;-55
2022/09/24 03:58:08;;;;;;;46.47;21.90;;;;;;;18.83;100.00;100971.13;4997726;28;20094;-53
2022/09/24 04:00:33;;;;;;;43.17;21.25;;;;;;;19.01;100.00;100972.78;5005581;28;20307;-53
2022/09/24 04:02:59;;;;;;;40.30;20.50;;;;;;;18.77;100.00;100970.22;5007422;28;20485;-53
2022/09/24 04:05:25;;;;;;;47.08;21.70;;;;;;;19.09;100.00;100968.00;4990827;28;20027;-52
2022/09/24 04:07:50;;;;;;;42.20;21.30;;;;;;;18.69;100.00;100962.53;5007681;28;20063;-50
2022/09/24 04:10:16;;;;;;;44.37;23.27;;;;;;;19.02;100.00;100965.44;4995793;28;20065;-55
2022/09/24 04:12:42;;;;;;;45.97;22.35;;;;;;;18.82;100.00;100952.41;4994144;28;20546;-55
2022/09/24 04:15:08;;;;;;;41.10;22.63;;;;;;;18.85;100.00;100960.88;5008606;28;20033;-55
2022/09/24 04:17:34;;;;;;;40.55;22.60;;;;;;;18.63;100.00;100963.50;5006411;28;20078;-54
2022/09/24 04:20:00;;;;;;;43.72;22.25;;;;;;;18.56;100.00;100960.13;4992363;28;20031;-54
2022/09/24 04:22:27;;;;;;;45.55;21.92;;;;;;;18.52;100.00;100954.38;4995715;28;20062;-51
2022/09/24 04:24:56;;;;;;;46.60;23.60;;;;;;;18.84;100.00;100951.09;5001351;28;20035;-54
2022/09/24 04:27:22;;;;;;;43.13;22.87;;;;;;;18.81;100.00;100956.19;5013748;28;20265;-51
2022/09/24 04:29:48;;;;;;;55.60;27.30;;;;;;;18.55;100.00;100958.50;4993045;28;20303;-52
2022/09/24 04:32:14;;;;;;;54.03;27.35;;;;;;;18.25;100.00;100954.22;5005547;28;20031;-54
2022/09/24 04:34:39;;;;;;;57.47;28.15;;;;;;;18.32;100.00;100952.16;5012443;28;20079;-51
2022/09/24 04:37:05;;;;;;;56.00;29.30;;;;;;;18.51;100.00;100951.94;5004473;28;20102;-55
2022/09/24 04:39:31;;;;;;;48.63;26.33;;;;;;;18.22;100.00;100951.97;5012407;28;20296;-56
2022/09/24 04:41:57;;;;;;;54.17;27.30;;;;;;;18.68;100.00;100952.72;5003862;28;20061;-57
2022/09/24 04:44:23;;;;;;;42.92;24.63;;;;;;;18.62;100.00;100951.00;5010002;28;20058;-53
2022/09/24 04:46:49;;;;;;;45.60;23.03;;;;;;;18.24;100.00;100947.97;4999507;28;20061;-55
2022/09/24 04:49:15;;;;;;;40.45;21.90;;;;;;;18.43;100.00;100948.53;5008549;28;20053;-50
2022/09/24 04:51:40;;;;;;;34.72;19.77;;;;;;;18.47;100.00;100947.00;4988557;28;20039;-51
2022/09/24 04:54:08;;;;;;;38.40;21.52;;;;;;;18.38;100.00;100948.47;4989063;28;20042;-53
2022/09/24 04:56:33;;;;;;;35.17;19.37;;;;;;;18.36;100.00;100956.03;4998920;28;20031;-58
2022/09/24 04:58:59;;;;;;;35.70;19.00;;;;;;;18.23;100.00;100951.75;5013296;28;20327;-53
2022/09/24 05:01:24;;;;;;;36.87;20.47;;;;;;;18.58;100.00;100948.00;4999568;28;20042;-56
2022/09/24 05:03:50;;;;;;;35.17;20.27;;;;;;;18.81;100.00;100954.31;5004304;28;20066;-53
2022/09/24 05:06:15;;;;;;;35.97;20.95;;;;;;;18.97;100.00;100954.50;4999460;28;20034;-56
2022/09/24 05:08:41;;;;;;;34.63;20.90;;;;;;;18.73;100.00;100960.13;5013906;28;20043;-55
2022/09/24 05:11:07;;;;;;;37.25;20.83;;;;;;;18.89;100.00;100955.75;4999692;28;20372;-54
2022/09/24 05:13:34;;;;;;;39.67;22.48;;;;;;;19.12;100.00;100962.06;5016950;28;20034;-54
2022/09/24 05:16:01;;;;;;;33.27;18.23;;;;;;;18.56;100.00;100958.22;5026022;28;20040;-56
2022/09/24 05:18:27;;;;;;;35.67;20.47;;;;;;;18.58;100.00;100958.00;5000129;28;20357;-54
2022/09/24 05:20:53;;;;;;;45.07;22.67;;;;;;;18.82;100.00;100953.25;4999443;28;20353;-53
2022/09/24 05:23:19;;;;;;;35.40;19.97;;;;;;;18.43;100.00;100961.28;5015075;28;20344;-55
2022/09/24 05:28:31;;;;;;;33.13;18.83;;;;;;;18.45;100.00;100962.69;5014909;28;20029;-56
2022/09/24 05:31:01;;;;;;;40.17;21.17;;;;;;;18.76;100.00;100957.75;5013161;28;20272;-54
2022/09/24 05:33:26;;;;;;;34.07;19.73;;;;;;;18.64;100.00;100959.72;5003433;28;20280;-55
2022/09/24 05:35:56;;;;;;;37.72;20.98;;;;;;;18.81;100.00;100967.00;5001854;28;20280;-55
2022/09/24 05:38:23;;;;;;;36.33;21.37;;;;;;;19.39;100.00;100972.19;4992152;28;20049;-51
2022/09/24 05:40:49;;;;;;;31.88;21.52;;;;;;;18.91;100.00;100968.00;4992349;28;20276;-54
2022/09/24 05:43:15;;;;;;;35.85;20.58;;;;;;;18.63;100.00;100971.63;5001754;28;20043;-49
2022/09/24 05:45:44;;;;;;;44.27;22.63;;;;;;;18.64;100.00;100975.97;4995223;28;20032;-56
2022/09/24 05:48:10;;;;;;;41.93;23.53;;;;;;;18.74;100.00;100983.44;5001998;28;20266;-55
2022/09/24 05:50:36;;;;;;;51.03;24.65;;;;;;;18.78;100.00;100980.00;5000228;28;20285;-53
2022/09/24 05:53:05;;;;;;;43.03;23.58;;;;;;;18.65;100.00;100985.72;4998577;28;20054;-50
2022/09/24 05:55:30;;;;;;;38.30;22.90;;;;;;;18.46;100.00;100980.56;4994268;28;20042;-55
2022/09/24 05:58:06;;;;;;;36.97;22.85;;;;;;;18.84;100.00;100982.78;5012169;28;20282;-53
2022/09/24 06:00:32;;;;;;;37.70;21.87;;;;;;;19.12;100.00;100994.59;4989169;28;20043;-51
2022/09/24 06:03:06;;;;;;;35.55;20.67;;;;;;;18.54;100.00;100983.94;5002449;28;20276;-55
2022/09/24 06:05:34;;;;;;;33.30;20.60;;;;;;;18.86;100.00;100986.06;5004479;28;20040;-54
2022/09/24 06:08:04;;;;;;;40.40;22.47;;;;;;;18.60;100.00;100980.22;4999235;28;20331;-52
2022/09/24 06:10:30;;;;;;;40.50;21.83;;;;;;;18.74;100.00;100983.44;4997530;28;20296;-56
2022/09/24 06:12:56;;;;;;;35.95;21.60;;;;;;;19.14;100.00;100992.44;4993762;28;20287;-51
2022/09/24 06:15:22;;;;;;;35.67;21.13;;;;;;;19.09;100.00;100993.22;5000594;28;20114;-53
2022/09/24 06:17:48;;;;;;;37.33;21.33;;;;;;;19.16;100.00;100995.75;5005606;28;20057;-58
2022/09/24 06:20:13;;;;;;;35.58;21.20;;;;;;;19.05;100.00;100995.59;5004120;28;20064;-55
2022/09/24 06:22:39;;;;;;;33.67;20.83;;;;;;;19.30;100.00;100996.22;4999824;28;20069;-56
2022/09/24 06:25:06;;;;;;;35.05;21.20;;;;;;;19.33;100.00;100996.53;4995692;28;20038;-53
2022/09/24 06:27:31;;;;;;;;;;;;;;;19.21;100.00;100993.13;5008281;28;20487;-55
2022/09/24 06:29:57;;;;;;;40.50;21.47;;;;;;;18.95;100.00;100995.44;4989928;28;19981;-54
2022/09/24 06:32:23;;;;;;;37.80;22.40;;;;;;;19.10;100.00;100994.03;5022428;28;20095;-52
2022/09/24 06:34:49;;;;;;;38.97;21.80;;;;;;;18.87;100.00;100993.13;5003984;28;20025;-53
2022/09/24 06:37:15;;;;;;;37.88;21.75;;;;;;;19.23;100.00;101001.81;5014769;28;20296;-53
2022/09/24 06:39:41;;;;;;;38.60;22.85;;;;;;;19.25;100.00;100996.13;5001062;28;20039;-54
2022/09/24 06:42:07;;;;;;;44.25;23.95;;;;;;;19.47;100.00;101001.59;5000807;28;20053;-55
2022/09/24 06:44:34;;;;;;;39.38;22.25;;;;;;;19.35;100.00;100997.09;4996461;28;20033;-57
2022/09/24 06:47:00;;;;;;;39.22;22.88;;;;;;;19.25;100.00;101007.81;5012890;28;20109;-53
2022/09/24 06:49:26;;;;;;;40.85;24.15;;;;;;;19.32;100.00;101003.00;4987285;28;20047;-56
2022/09/24 06:51:57;;;;;;;42.90;22.75;;;;;;;19.47;100.00;101012.44;5015487;28;20054;-52
2022/09/24 06:54:23;;;;;;;41.30;22.73;;;;;;;19.10;100.00;101007.56;5005737;28;20042;-53
2022/09/24 06:56:51;;;;;;;46.00;23.85;;;;;;;18.83;100.00;101011.78;4992381;28;20277;-53
2022/09/24 06:59:16;;;;;;;42.40;22.03;;;;;;;18.89;100.00;101007.22;5003743;28;20044;-51
2022/09/24 07:01:42;;;;;;;49.00;24.05;;;;;;;19.07;100.00;101008.91;4999395;28;20269;-54
2022/09/24 07:04:07;;;;;;;47.30;24.45;;;;;;;19.22;100.00;101021.03;5010942;28;20050;-56
2022/09/24 07:07:28;;;;;;;47.08;24.70;;;;;;;19.14;100.00;101011.41;5012633;28;20050;-52
2022/09/24 07:09:18;;;;;;;51.43;26.90;;;;;;;19.10;100.00;101015.69;5011860;28;20039;-52
2022/09/24 07:11:45;;;;;;;46.42;26.80;;;;;;;19.14;100.00;101019.56;5012215;28;20284;-57
2022/09/24 07:14:14;;;;;;;48.87;27.60;;;;;;;19.35;100.00;101029.63;4992407;28;20043;-57
2022/09/24 07:16:39;;;;;;;49.33;29.60;;;;;;;18.87;100.00;101025.63;5009018;28;20260;-56
2022/09/24 07:19:05;;;;;;;42.42;24.48;;;;;;;18.94;100.00;101025.47;5013881;28;20282;-54
2022/09/24 07:21:30;;;;;;;50.53;25.20;;;;;;;19.19;100.00;101025.06;5002210;28;20030;-57
2022/09/24 07:23:56;;;;;;;40.47;23.40;;;;;;;19.10;100.00;101023.84;5012443;28;20039;-56
2022/09/24 07:26:21;;;;;;;38.78;22.23;;;;;;;18.93;100.00;101024.66;5009911;28;20055;-53
2022/09/24 07:28:47;;;;;;;40.15;23.70;;;;;;;19.09;100.00;101027.63;4996558;28;20027;-53
2022/09/24 07:31:12;;;;;;;42.05;23.08;;;;;;;19.29;100.00;101029.81;5022419;28;20046;-54
2022/09/24 07:33:38;;;;;;;36.47;20.40;;;;;;;19.32;100.00;101032.03;4992389;28;20031;-56
2022/09/24 07:36:07;;;;;;;34.83;21.08;;;;;;;19.36;100.00;101035.88;5001560;28;20043;-55
2022/09/24 07:38:35;;;;;;;36.07;21.50;;;;;;;19.32;100.00;101043.69;5010934;28;20050;-54
2022/09/24 07:41:03;;;;;;;35.47;20.90;;;;;;;19.58;100.00;101040.50;4992370;28;20284;-55
2022/09/24 07:43:30;;;;;;;35.70;21.13;;;;;;;19.71;100.00;101039.31;5005844;28;20272;-53
2022/09/24 07:45:57;;;;;;;35.80;20.57;;;;;;;19.37;100.00;101044.81;5006426;28;20296;-56
2022/09/24 07:48:23;;;;;;;31.52;19.45;;;;;;;19.32;100.00;101049.09;5005098;28;20258;-53
2022/09/24 07:50:50;;;;;;;35.03;20.83;;;;;;;19.46;100.00;101046.84;4991778;28;20069;-53
2022/09/24 07:53:16;;;;;;;35.60;20.17;;;;;;;19.44;100.00;101050.91;4989681;28;20039;-54
2022/09/24 07:55:41;;;;;;;34.50;20.80;;;;;;;19.51;100.00;101051.53;5018088;28;20272;-55
2022/09/24 07:58:12;;;;;;;33.22;19.60;;;;;;;19.72;100.00;101058.06;5023294;28;20037;-52
2022/09/24 08:00:37;;;;;;;38.60;21.50;;;;;;;19.36;100.00;101054.88;5014905;28;20094;-51
2022/09/24 08:03:04;;;;;;;39.42;22.17;;;;;;;19.32;100.00;101053.72;5002604;28;20276;-55
2022/09/24 08:05:31;;;;;;;37.20;22.33;;;;;;;19.40;100.00;101050.56;5011952;28;20059;-52
2022/09/24 08:07:58;;;;;;;39.37;22.93;;;;;;;19.34;100.00;101057.81;5012007;28;20035;-55
2022/09/24 08:10:25;;;;;;;35.00;20.85;;;;;;;19.31;100.00;101061.03;5006716;28;20265;-55
2022/09/24 08:12:55;;;;;;;32.80;19.60;;;;;;;19.53;100.00;101060.25;4992352;28;20043;-54
2022/09/24 08:15:21;;;;;;;38.23;22.23;;;;;;;19.56;100.00;101056.22;4992670;28;20337;-53
2022/09/24 08:17:46;;;;;;;37.22;21.08;;;;;;;19.42;100.00;101063.91;5007147;28;20289;-52
2022/09/24 08:20:13;;;;;;;37.42;22.35;;;;;;;19.57;100.00;101063.28;4996951;28;20063;-53
2022/09/24 08:22:38;;;;;;;37.20;22.20;;;;;;;19.42;100.00;101055.75;4991960;28;20031;-51
2022/09/24 08:25:04;;;;;;;41.75;22.83;;;;;;;19.40;100.00;101071.47;5005293;28;20061;-51
2022/09/24 08:27:31;;;;;;;39.75;22.90;;;;;;;19.38;100.00;101079.03;5004423;28;20039;-56
2022/09/24 08:29:59;;;;;;;36.87;22.40;;;;;;;20.21;100.00;101080.94;5001564;28;20047;-51
2022/09/24 08:32:25;;;;;;;37.17;23.13;;;;;;;19.87;100.00;101078.31;4989084;28;20280;-53
2022/09/24 08:34:51;;;;;;;37.47;23.30;;;;;;;19.52;100.00;101083.00;4997866;28;20272;-53
2022/09/24 08:37:16;;;;;;;36.78;22.10;;;;;;;19.41;100.00;101075.81;5001613;28;20033;-54
2022/09/24 08:39:42;;;;;;;43.08;24.42;;;;;;;19.32;100.00;101078.13;4997896;28;20046;-55
2022/09/24 08:42:36;;;;;;;35.50;20.60;;;;;;;19.33;100.00;101088.72;5011645;28;20031;-51
2022/09/24 08:47:56;;;;;;;47.40;20.63;;;;;;;19.16;100.00;101093.34;5005693;28;20268;-52
2022/09/24 08:50:26;;;;;;;37.93;22.63;;;;;;;19.73;100.00;101091.44;5017387;28;20065;-55
2022/09/24 08:53:02;;;;;;;34.43;20.33;;;;;;;19.88;100.00;101091.66;5007922;28;20268;-56
2022/09/24 08:55:41;;;;;;;36.50;22.77;;;;;;;19.42;100.00;101091.81;4998745;28;20280;-51
2022/09/24 08:58:34;;;;;;;36.00;22.70;;;;;;;19.73;100.00;101094.16;5006703;28;20284;-52
2022/09/24 09:01:11;;;;;;;37.60;22.30;;;;;;;19.80;100.00;101097.50;5004951;28;20281;-54
2022/09/24 09:04:19;;;;;;;35.27;22.83;;;;;;;19.89;100.00;101087.84;5021237;28;20275;-55
2022/09/24 09:07:00;;;;;;;33.83;21.27;;;;;;;19.59;100.00;101099.91;5005968;28;20298;-51
2022/09/24 09:09:42;;;;;;;38.53;22.33;;;;;;;19.59;100.00;101091.78;5001695;28;20280;-56
2022/09/24 09:12:24;;;;;;;38.30;22.20;;;;;;;19.57;100.00;101103.97;5012846;28;20373;-53
2022/09/24 09:14:58;;;;;;;35.87;22.60;;;;;;;20.13;100.00;101103.09;5008826;28;20273;-54
2022/09/24 09:17:35;;;;;;;36.40;23.33;;;;;;;19.74;100.00;101110.19;5000437;28;20278;-53
2022/09/24 09:20:03;;;;;;;;;;;;;;;19.90;100.00;101113.91;5003372;28;20276;-55
2022/09/24 09:22:34;;;;;;;38.40;21.80;;;;;;;20.03;100.00;101115.47;4997435;28;20373;-54
2022/09/24 09:25:14;;;;;;;44.10;24.77;;;;;;;20.09;100.00;101113.66;5007284;28;20305;-53
2022/09/24 09:27:39;;;;;;;43.47;26.23;;;;;;;19.90;100.00;101119.34;5005045;28;20273;-54
2022/09/24 09:30:06;;;;;;;42.53;25.23;;;;;;;19.88;100.00;101120.66;4997097;28;20284;-56
2022/09/24 09:33:03;;;;;;;45.13;26.23;;;;;;;20.04;100.00;101127.13;4999561;28;20109;-52
2022/09/24 09:35:55;;;;;;;40.43;24.93;;;;;;;19.89;100.00;101122.31;4997149;28;20331;-53
2022/09/24 09:38:32;;;;;;;44.83;25.43;;;;;;;19.73;100.00;101130.25;5001276;28;20304;-57
2022/09/24 09:41:24;;;;;;;;;;;;;;;19.59;100.00;101118.91;4992271;28;20287;-57
2022/09/24 09:43:58;;;;;;;41.20;24.40;;;;;;;19.81;100.00;101122.75;5013016;28;19913;-55
2022/09/24 09:46:30;;;;;;;39.80;24.87;;;;;;;19.86;100.00;101123.66;5004411;28;20264;-55
2022/09/24 09:49:01;;;;;;;42.70;24.80;;;;;;;19.87;100.00;101129.88;4991097;28;20324;-54
2022/09/24 09:51:36;;;;;;;44.57;25.73;;;;;;;19.55;100.00;101131.34;4995761;28;20262;-55
2022/09/24 09:54:02;;;;;;;44.77;26.13;;;;;;;19.64;100.00;101134.44;5010087;28;20276;-52
2022/09/24 09:56:33;;;;;;;45.53;26.40;;;;;;;19.61;100.00;101130.34;5006021;28;20345;-55
2022/09/24 09:59:16;;;;;;;45.23;24.73;;;;;;;19.42;100.00;101126.28;5008054;28;20360;-52
2022/09/24 10:01:46;;;;;;;47.70;25.07;;;;;;;19.32;100.00;101137.78;5005842;28;20294;-53
2022/09/24 10:04:33;;;;;;;57.27;31.77;;;;;;;19.75;100.00;101130.81;5006133;28;20265;-50
2022/09/24 10:07:10;;;;;;;61.05;31.30;;;;;;;19.68;100.00;101132.88;5004933;28;20264;-54
2022/09/24 10:09:37;;;;;;;;;;;;;;;19.89;100.00;101133.16;5003649;28;20062;-52
2022/09/24 10:12:07;;;;;;;57.93;29.70;;;;;;;19.92;100.00;101129.97;5005179;28;19987;-54
2022/09/24 10:14:33;;;;;;;74.30;34.83;;;;;;;19.96;100.00;101125.69;4995982;28;20264;-56
2022/09/24 10:17:04;;;;;;;45.03;26.77;;;;;;;19.32;100.00;101135.06;5008318;28;20293;-50
2022/09/24 10:19:33;;;;;;;46.73;25.13;;;;;;;19.53;100.00;101136.19;5002713;28;20042;-54
2022/09/24 10:22:08;;;;;;;55.10;23.90;;;;;;;19.35;100.00;101129.16;5005901;28;20274;-53
2022/09/24 10:24:35;;;;;;;47.90;25.30;;;;;;;19.86;100.00;101134.50;5012633;28;20262;-54
2022/09/24 10:27:10;;;;;;;46.83;24.97;;;;;;;19.35;100.00;101127.25;5005559;28;20299;-50
2022/09/24 10:32:22;;;;;;;44.10;24.10;;;;;;;19.80;100.00;101134.69;4990178;28;20281;-55
2022/09/24 10:35:27;;;;;;;38.23;20.17;;;;;;;19.47;100.00;101137.19;4995954;28;20345;-52
2022/09/24 10:37:55;;;;;;;40.67;21.23;;;;;;;19.60;100.00;101127.88;5002851;28;20315;-58
2022/09/24 10:40:29;;;;;;;38.00;21.23;;;;;;;19.75;100.00;101133.53;4999706;28;20268;-57
2022/09/24 10:43:00;;;;;;;37.97;20.03;;;;;;;19.61;100.00;101134.94;5004013;28;20341;-56
2022/09/24 10:45:38;;;;;;;45.37;21.27;;;;;;;19.38;100.00;101135.97;4993659;28;20269;-56
2022/09/24 10:48:25;;;;;;;32.27;19.60;;;;;;;19.13;100.00;101142.59;4990688;28;20299;-53
2022/09/24 10:51:00;;;;;;;51.63;23.87;;;;;;;19.34;100.00;101133.72;4997186;28;20284;-55
2022/09/24 10:53:52;;;;;;;49.13;26.53;;;;;;;19.60;100.00;101141.44;4998308;28;20273;-52
2022/09/24 10:56:46;;;;;;;56.53;26.23;;;;;;;19.61;100.00;101141.22;4990586;28;20293;-56
2022/09/24 10:59:21;;;;;;;53.17;26.67;;;;;;;19.84;100.00;101136.66;4994223;28;20333;-56
2022/09/24 11:02:07;;;;;;;57.73;26.87;;;;;;;19.84;100.00;101142.06;4997399;28;20294;-56
2022/09/24 11:04:57;;;;;;;56.70;29.77;;;;;;;19.71;100.00;101143.22;4996732;28;20290;-53
2022/09/24 11:07:58;;;;;;;46.53;24.30;;;;;;;19.98;100.00;101147.16;5012157;28;20273;-54
2022/09/24 11:10:40;;;;;;;32.27;18.07;;;;;;;20.07;100.00;101153.81;5005001;28;20283;-56
2022/09/24 11:13:30;;;;;;;33.00;18.03;;;;;;;20.17;100.00;101156.63;4996160;28;20300;-55
2022/09/24 11:16:02;;;;;;;32.03;16.90;;;;;;;19.87;100.00;101151.59;5004887;28;20382;-51
2022/09/24 11:18:45;;;;;;;30.43;17.63;;;;;;;20.23;100.00;101151.25;5006735;28;20381;-50
2022/09/24 11:21:33;;;;;;;34.80;18.43;;;;;;;20.34;100.00;101161.19;5010976;28;20285;-56
2022/09/24 11:24:27;;;;;;;29.97;17.63;;;;;;;20.16;100.00;101160.44;4994356;28;20280;-51
2022/09/24 11:27:22;;;;;;;40.37;21.10;;;;;;;20.21;100.00;101162.38;5002516;28;20281;-56